Little America, Illinois
Current Conditions -  °F | °C
As of 6:55 PM on Tuesday 21 Oct 2014 (Local Time) from KMQB Reporting Station
Clear Clear  
Wind Chill: 46°   Ceiling: Unl
Heat Index: 49°   Visibility: 10mi
Dew Point: 38°   Wind: 7mph
Humidity: 66%   Direction: 70°ENE
Pressure: 30.2"   Gusts: NA
Location:  40.3324°N, 90.1539°W
Report Text: KMQB 212355Z AUTO 07006KT 10SM CLR 09/03 A3020 RMK AO2 T00940033 10164 20094
Loading
Personal Weather Stations






























Interactive Weather Map New forecast layout! Learn more

10-Day Weather Forecast

Advertisements
Track Severe Weather on mobile